Time;durP1;ratioP1;P1;durP2;ratioP2;P2;SDS_P1;SDS_P2;PMS_P1;PMS_P2;Temp;Humidity;BMP_temperature;BMP_pressure;BME280_temperature;BME280_humidity;BME280_pressure;Samples;Min_cycle;Max_cycle;Signal;HPM_P1;HPM_P2
2024/02/29 00:00:25;;;;;;;13.32;6.10;;;;;;;9.34;58.89;101602.94;4944338;28;114321;-77
2024/02/29 00:02:52;;;;;;;12.23;6.40;;;;;;;9.32;58.92;101591.56;4952479;28;113765;-78
2024/02/29 00:05:22;;;;;;;11.95;5.70;;;;;;;9.30;58.79;101588.09;4950114;28;123151;-78
2024/02/29 00:07:49;;;;;;;9.40;5.85;;;;;;;9.28;58.74;101587.28;4946356;28;124263;-78
2024/02/29 00:10:18;;;;;;;10.90;6.05;;;;;;;9.24;58.97;101589.13;4949151;28;114405;-76
2024/02/29 00:12:45;;;;;;;10.70;5.75;;;;;;;9.22;58.69;101579.53;4951248;28;114334;-76
2024/02/29 00:15:13;;;;;;;10.75;6.18;;;;;;;9.19;58.82;101579.59;4942740;28;124308;-75
2024/02/29 00:17:40;;;;;;;8.90;5.78;;;;;;;9.19;58.93;101577.81;4944567;28;124216;-77
2024/02/29 00:20:14;;;;;;;11.48;5.55;;;;;;;9.16;58.89;101565.56;4930076;28;113673;-76
2024/02/29 00:22:42;;;;;;;10.65;5.95;;;;;;;9.16;58.84;101569.97;4950940;28;114137;-76
2024/02/29 00:25:09;;;;;;;11.63;6.15;;;;;;;9.15;58.59;101568.22;4941573;28;123239;-77
2024/02/29 00:27:37;;;;;;;10.80;6.22;;;;;;;9.13;58.86;101565.63;4947566;28;123702;-76
2024/02/29 00:30:05;;;;;;;12.77;6.40;;;;;;;9.13;58.93;101559.47;4948907;28;114625;-76
2024/02/29 00:32:33;;;;;;;14.38;6.78;;;;;;;9.13;58.78;101565.63;4945877;28;114837;-76
2024/02/29 00:35:02;;;;;;;10.70;6.80;;;;;;;9.13;59.08;101559.47;4944873;28;123917;-76
2024/02/29 00:37:29;;;;;;;10.85;6.13;;;;;;;9.12;58.53;101555.97;4943338;28;123162;-76
2024/02/29 00:39:58;;;;;;;12.35;6.78;;;;;;;9.12;58.62;101548.06;4946860;28;114362;-77
2024/02/29 00:42:25;;;;;;;12.65;6.53;;;;;;;9.11;58.48;101540.16;4946078;28;114567;-76
2024/02/29 00:44:55;;;;;;;14.10;7.60;;;;;;;9.11;58.56;101550.72;4945620;28;123479;-76
2024/02/29 00:47:23;;;;;;;9.55;6.18;;;;;;;9.11;58.47;101538.38;4950649;28;124379;-76
2024/02/29 00:49:56;;;;;;;15.52;6.30;;;;;;;9.10;58.58;101534.03;4941897;28;113786;-76
2024/02/29 00:52:23;;;;;;;12.15;6.85;;;;;;;9.09;58.58;101532.28;4948902;28;112207;-76
2024/02/29 00:54:51;;;;;;;13.10;7.03;;;;;;;9.10;58.52;101528.75;4941613;28;123792;-76
2024/02/29 00:57:18;;;;;;;17.40;6.45;;;;;;;9.10;58.36;101527.88;4940204;28;124198;-76
2024/02/29 00:59:45;;;;;;;12.40;6.78;;;;;;;9.09;58.22;101527.00;4951435;28;113661;-76
2024/02/29 01:02:12;;;;;;;13.25;7.38;;;;;;;9.08;58.15;101522.63;4944724;28;114226;-76
2024/02/29 01:04:40;;;;;;;12.18;6.60;;;;;;;9.08;58.17;101530.56;4948372;28;123713;-76
2024/02/29 01:07:07;;;;;;;16.20;7.05;;;;;;;9.07;57.99;101528.81;4935107;28;123462;-76
2024/02/29 01:09:34;;;;;;;17.52;7.30;;;;;;;9.06;58.09;101521.81;4945354;28;113394;-76
2024/02/29 01:12:01;;;;;;;15.07;7.68;;;;;;;9.06;58.08;101516.53;4951044;28;113503;-76
2024/02/29 01:14:29;;;;;;;14.02;7.68;;;;;;;9.05;58.23;101514.78;4947560;28;123625;-77
2024/02/29 01:16:56;;;;;;;14.43;7.43;;;;;;;9.06;58.51;101516.53;4946252;28;124655;-76
2024/02/29 01:19:25;;;;;;;14.60;7.43;;;;;;;9.05;57.89;101514.78;4944961;28;115677;-76
2024/02/29 01:21:52;;;;;;;17.05;8.07;;;;;;;9.06;58.39;101511.25;4950651;28;115638;-75
2024/02/29 01:24:24;;;;;;;16.67;7.60;;;;;;;9.06;58.01;101508.59;4953461;28;124546;-76
2024/02/29 01:26:51;;;;;;;16.20;8.38;;;;;;;9.07;58.37;101502.38;4942617;28;123219;-76
2024/02/29 01:29:19;;;;;;;15.18;7.95;;;;;;;9.09;58.11;101497.06;4948864;28;114184;-75
2024/02/29 01:31:46;;;;;;;16.27;7.57;;;;;;;9.10;58.33;101491.75;4945214;28;113662;-76
2024/02/29 01:34:13;;;;;;;16.73;8.07;;;;;;;9.10;58.23;101486.47;4943360;28;124490;-75
2024/02/29 01:36:44;;;;;;;14.45;8.18;;;;;;;9.11;58.24;101482.88;4931606;28;122075;-76
2024/02/29 01:39:11;;;;;;;16.98;8.15;;;;;;;9.13;58.39;101483.72;4935574;28;113518;-76
2024/02/29 01:41:40;;;;;;;18.55;8.32;;;;;;;9.13;58.17;101481.06;4948516;28;114111;-76
2024/02/29 01:44:07;;;;;;;17.27;8.27;;;;;;;9.14;58.16;101482.81;4966396;28;123863;-76
2024/02/29 01:46:37;;;;;;;15.32;7.97;;;;;;;9.14;58.15;101472.25;4950872;28;123926;-76
2024/02/29 01:49:06;;;;;;;14.05;7.97;;;;;;;9.16;57.92;101475.69;4950107;28;114363;-77
2024/02/29 01:51:35;;;;;;;15.63;8.27;;;;;;;9.18;57.85;101466.88;4953085;28;112823;-77
2024/02/29 01:54:04;;;;;;;17.95;9.25;;;;;;;9.18;57.83;101467.72;4948770;28;123365;-77
2024/02/29 01:56:32;;;;;;;17.02;8.40;;;;;;;9.20;57.92;101454.47;4947965;28;123765;-76
2024/02/29 01:59:01;;;;;;;16.80;8.38;;;;;;;9.20;57.84;101452.69;4944685;28;114535;-77
2024/02/29 02:01:30;;;;;;;15.80;8.45;;;;;;;9.22;57.92;101455.31;4961047;28;114042;-76
2024/02/29 02:03:57;;;;;;;15.82;8.38;;;;;;;9.23;57.76;101454.38;4949105;28;124155;-77
2024/02/29 02:06:24;;;;;;;15.30;8.35;;;;;;;9.24;57.88;101442.91;4947914;28;123918;-76
2024/02/29 02:08:52;;;;;;;17.58;8.13;;;;;;;9.25;57.86;101442.88;4942928;28;114865;-77
2024/02/29 02:11:20;;;;;;;15.70;8.40;;;;;;;9.26;58.01;101438.44;4947314;28;115119;-76
2024/02/29 02:13:47;;;;;;;17.15;8.95;;;;;;;9.28;57.85;101437.47;4949544;28;124033;-76
2024/02/29 02:16:15;;;;;;;14.63;8.30;;;;;;;9.29;58.00;101430.41;4946418;28;124248;-77
2024/02/29 02:18:46;;;;;;;17.98;8.63;;;;;;;9.30;57.63;101424.22;4930783;28;113519;-77
2024/02/29 02:21:13;;;;;;;15.32;7.97;;;;;;;9.32;57.83;101427.66;4950142;28;114297;-76
2024/02/29 02:23:46;;;;;;;16.38;8.35;;;;;;;9.31;57.77;101426.81;4942613;28;125344;-77
2024/02/29 02:26:13;;;;;;;17.38;8.73;;;;;;;9.32;57.81;101417.09;4939651;28;124844;-76
2024/02/29 02:28:40;;;;;;;15.02;8.48;;;;;;;9.33;57.97;101416.19;4951998;28;114164;-76
2024/02/29 02:31:08;;;;;;;16.52;8.40;;;;;;;9.32;57.89;101417.09;4944071;28;114001;-75
2024/02/29 02:33:35;;;;;;;16.67;8.30;;;;;;;9.35;57.67;101411.72;4946223;28;124412;-75
2024/02/29 02:36:03;;;;;;;16.17;8.55;;;;;;;9.36;58.06;101397.56;4936127;28;122932;-76
2024/02/29 02:38:30;;;;;;;19.00;9.15;;;;;;;9.38;57.83;101395.78;4942771;28;114327;-75
2024/02/29 02:40:57;;;;;;;17.75;8.93;;;;;;;9.40;57.78;101393.94;4948477;28;113246;-74
2024/02/29 02:43:26;;;;;;;18.60;8.55;;;;;;;9.41;58.09;101384.22;4948448;28;123969;-75
2024/02/29 02:45:53;;;;;;;15.75;8.05;;;;;;;9.44;57.89;101381.50;4941577;28;123522;-76
2024/02/29 02:48:22;;;;;;;16.58;7.80;;;;;;;9.46;57.89;101377.88;4946359;28;113247;-75
2024/02/29 02:50:51;;;;;;;15.88;8.60;;;;;;;9.48;57.93;101375.19;4939711;28;114085;-75
2024/02/29 02:53:19;;;;;;;15.38;8.27;;;;;;;9.49;57.93;101369.88;4946202;28;124839;-76
2024/02/29 02:55:46;;;;;;;16.52;8.60;;;;;;;9.50;57.97;101363.66;4948986;28;124467;-75
2024/02/29 02:58:13;;;;;;;17.38;8.88;;;;;;;9.52;57.95;101361.81;4944062;28;115505;-75
2024/02/29 03:00:41;;;;;;;15.57;8.82;;;;;;;9.55;58.01;101356.44;4944761;28;114523;-76
2024/02/29 03:03:10;;;;;;;17.75;8.77;;;;;;;9.55;58.01;101351.16;4943128;28;124704;-76
2024/02/29 03:05:37;;;;;;;15.20;8.20;;;;;;;9.57;58.27;101347.56;4949816;28;124516;-75
2024/02/29 03:08:05;;;;;;;18.48;8.60;;;;;;;9.59;58.03;101341.34;4947927;28;114223;-76
2024/02/29 03:10:33;;;;;;;18.27;8.90;;;;;;;9.61;58.00;101339.50;4949437;28;114325;-75
2024/02/29 03:13:00;;;;;;;17.52;8.63;;;;;;;9.61;57.95;101328.06;4950624;28;123234;-75
2024/02/29 03:15:27;;;;;;;16.95;8.80;;;;;;;9.62;58.11;101329.78;4950637;28;123334;-75
2024/02/29 03:17:55;;;;;;;17.40;9.20;;;;;;;9.63;58.12;101326.25;4944242;28;114555;-76
2024/02/29 03:20:23;;;;;;;17.77;9.13;;;;;;;9.63;58.08;101323.59;4943631;28;114564;-76
2024/02/29 03:22:51;;;;;;;15.90;8.55;;;;;;;9.64;58.16;101322.66;4939013;28;122646;-76
2024/02/29 03:25:18;;;;;;;21.10;9.13;;;;;;;9.64;58.08;101317.38;4947018;28;124231;-75
2024/02/29 03:27:46;;;;;;;19.23;9.20;;;;;;;9.65;57.99;101319.13;4946898;28;114492;-75
2024/02/29 03:30:13;;;;;;;15.80;8.80;;;;;;;9.67;58.34;101309.34;4939363;28;114037;-75
2024/02/29 03:32:40;;;;;;;15.75;8.85;;;;;;;9.65;58.17;101308.53;4948932;28;124527;-75
2024/02/29 03:35:08;;;;;;;16.35;8.48;;;;;;;9.66;58.22;101299.66;4945085;28;123971;-75
2024/02/29 03:37:35;;;;;;;16.92;8.65;;;;;;;9.66;58.13;101299.66;4949131;28;114073;-75
2024/02/29 03:40:03;;;;;;;16.42;9.23;;;;;;;9.66;58.28;101299.66;4948464;28;114107;-75
2024/02/29 03:42:56;;;;;;;16.27;9.02;;;;;;;9.65;58.36;101303.25;4944477;28;124481;-75
2024/02/29 03:45:24;;;;;;;18.60;8.88;;;;;;;9.66;58.28;101299.66;4949252;28;124367;-75
2024/02/29 03:48:18;;;;;;;16.50;8.63;;;;;;;9.66;58.21;101299.66;4963895;28;116504;-75
2024/02/29 03:50:46;;;;;;;15.65;8.95;;;;;;;9.65;58.38;101296.16;4942212;28;114931;-75
2024/02/29 03:53:17;;;;;;;15.40;8.88;;;;;;;9.65;58.14;101297.97;4949443;28;124154;-75
2024/02/29 03:55:47;;;;;;;17.08;8.88;;;;;;;9.65;58.45;101288.22;4959876;28;123008;-75
2024/02/29 03:58:16;;;;;;;18.15;9.02;;;;;;;9.67;58.21;101290.84;4946996;28;114554;-76
2024/02/29 04:00:43;;;;;;;16.98;8.65;;;;;;;9.66;58.45;101291.72;4944409;28;113581;-76
2024/02/29 04:03:30;;;;;;;16.92;8.68;;;;;;;9.65;58.44;101287.38;4947329;28;124515;-75
2024/02/29 04:05:57;;;;;;;14.80;9.02;;;;;;;9.66;58.24;101286.44;4947844;28;123908;-76
2024/02/29 04:08:25;;;;;;;14.95;8.38;;;;;;;9.65;58.22;101282.09;4936012;28;113472;-74
2024/02/29 04:10:52;;;;;;;16.77;8.38;;;;;;;9.64;58.55;101283.00;4943860;28;112919;-75
2024/02/29 04:13:22;;;;;;;19.40;9.05;;;;;;;9.64;58.55;101275.06;4946736;28;122812;-75
2024/02/29 04:15:49;;;;;;;17.80;9.18;;;;;;;9.65;58.56;101282.09;4943457;28;123985;-75
2024/02/29 04:18:18;;;;;;;19.38;9.43;;;;;;;9.65;58.60;101274.16;4952278;28;114529;-75
2024/02/29 04:20:45;;;;;;;16.35;8.70;;;;;;;9.65;58.53;101268.88;4944476;28;112861;-75
2024/02/29 04:23:12;;;;;;;16.25;8.85;;;;;;;9.65;58.61;101266.22;4945217;28;123271;-75
2024/02/29 04:25:40;;;;;;;15.45;8.63;;;;;;;9.66;58.53;101262.66;4945736;28;124620;-75
2024/02/29 04:28:08;;;;;;;16.75;9.25;;;;;;;9.68;58.83;101260.81;4941205;28;114805;-75
2024/02/29 04:30:35;;;;;;;17.75;8.77;;;;;;;9.69;58.59;101257.25;4944376;28;113792;-75
2024/02/29 04:33:05;;;;;;;16.75;8.98;;;;;;;9.70;58.58;101256.31;4948004;28;123312;-75
2024/02/29 04:35:33;;;;;;;21.25;9.55;;;;;;;9.71;58.76;101250.13;4949956;28;124001;-76
2024/02/29 04:38:01;;;;;;;16.90;9.05;;;;;;;9.71;58.81;101250.13;4945403;28;115637;-75
2024/02/29 04:40:49;;;;;;;17.42;9.35;;;;;;;9.71;58.81;101244.84;4946423;28;114112;-76
2024/02/29 04:43:16;;;;;;;18.02;8.80;;;;;;;9.72;58.62;101238.66;4946085;28;123853;-76
2024/02/29 04:45:46;;;;;;;17.40;9.02;;;;;;;9.72;58.92;101231.56;4951825;28;124386;-76
2024/02/29 04:48:13;;;;;;;16.48;8.80;;;;;;;9.74;58.97;101237.66;4945481;28;113746;-76
2024/02/29 04:51:07;;;;;;;16.65;8.73;;;;;;;9.74;58.89;101237.66;4946239;28;114750;-76
2024/02/29 04:53:35;;;;;;;17.95;9.05;;;;;;;9.77;58.80;101231.38;4944540;28;123755;-76
2024/02/29 04:56:05;;;;;;;17.17;8.20;;;;;;;9.79;58.86;101229.56;4945398;28;124748;-75
2024/02/29 04:58:32;;;;;;;15.65;8.43;;;;;;;9.82;58.90;101224.16;4951217;28;114225;-76
2024/02/29 05:01:01;;;;;;;17.30;8.70;;;;;;;9.83;59.21;101222.38;4941458;28;114074;-75
2024/02/29 05:03:29;;;;;;;17.42;9.40;;;;;;;9.84;59.07;101219.69;4949185;28;124660;-76
2024/02/29 05:05:58;;;;;;;16.90;9.10;;;;;;;9.87;59.03;101214.28;4952966;28;126479;-75
2024/02/29 05:08:26;;;;;;;15.80;8.70;;;;;;;9.87;59.33;101214.28;4946186;28;113936;-76
2024/02/29 05:10:58;;;;;;;14.20;8.45;;;;;;;9.91;58.92;101209.75;4941868;28;113135;-75
2024/02/29 05:13:25;;;;;;;17.05;8.73;;;;;;;9.92;58.82;101209.66;4943748;28;125440;-75
2024/02/29 05:15:55;;;;;;;14.90;8.50;;;;;;;9.94;59.08;101205.22;4949864;28;124303;-75
2024/02/29 05:18:26;;;;;;;17.65;8.80;;;;;;;9.96;59.10;101206.91;4945068;28;114195;-74
2024/02/29 05:20:55;;;;;;;19.58;8.98;;;;;;;9.98;59.07;101205.09;4940106;28;114831;-75
2024/02/29 05:23:22;;;;;;;18.58;9.45;;;;;;;9.99;59.05;101201.53;4942134;28;124571;-72
2024/02/29 05:25:49;;;;;;;18.73;9.32;;;;;;;9.99;59.08;101198.88;4944608;28;123770;-74
2024/02/29 05:28:17;;;;;;;16.88;8.23;;;;;;;10.00;59.28;101192.66;4949561;28;115315;-75
2024/02/29 05:30:45;;;;;;;16.33;8.75;;;;;;;10.01;59.30;101189.09;4946830;28;115402;-73
2024/02/29 05:33:12;;;;;;;18.13;8.65;;;;;;;10.03;59.08;101192.56;4946384;28;123501;-75
2024/02/29 05:35:40;;;;;;;17.13;8.75;;;;;;;10.04;59.29;101188.97;4945033;28;123252;-76
2024/02/29 05:38:07;;;;;;;15.68;8.40;;;;;;;10.04;59.08;101188.97;4951099;28;114564;-76
2024/02/29 05:40:35;;;;;;;14.32;8.38;;;;;;;10.05;59.32;101190.72;4960827;28;113820;-77
2024/02/29 05:43:15;;;;;;;15.23;8.63;;;;;;;10.05;59.34;101185.41;4944896;28;124498;-76
2024/02/29 05:45:43;;;;;;;18.50;8.82;;;;;;;10.06;59.11;101182.72;4943120;28;124338;-77
2024/02/29 05:48:12;;;;;;;19.20;8.88;;;;;;;10.06;59.29;101176.56;4950265;28;115108;-76
2024/02/29 05:50:39;;;;;;;15.98;7.97;;;;;;;10.09;59.22;101181.72;4948654;28;113834;-77
2024/02/29 05:53:14;;;;;;;19.70;8.85;;;;;;;10.09;59.31;101177.28;4946429;28;124463;-77
2024/02/29 05:55:42;;;;;;;17.73;8.63;;;;;;;10.11;59.32;101174.59;4945863;28;123497;-77
2024/02/29 05:58:10;;;;;;;15.40;8.73;;;;;;;10.12;59.12;101165.75;4943367;28;113966;-77
2024/02/29 06:00:38;;;;;;;16.35;8.15;;;;;;;10.14;59.14;101169.19;4941581;28;114119;-77
2024/02/29 06:03:05;;;;;;;13.82;8.30;;;;;;;10.14;59.15;101169.19;4945734;28;124139;-77
2024/02/29 06:05:35;;;;;;;15.25;8.43;;;;;;;10.16;59.19;101164.72;4952112;28;123274;-77
2024/02/29 06:08:04;;;;;;;16.60;8.80;;;;;;;10.17;59.26;101163.78;4941033;28;114402;-77
2024/02/29 06:10:31;;;;;;;14.02;5.93;;;;;;;10.19;59.20;101161.94;4929302;28;113516;-77
2024/02/29 06:13:03;;;;;;;11.55;5.38;;;;;;;10.20;58.98;101157.50;4944377;28;125471;-77
2024/02/29 06:15:31;;;;;;;12.43;6.00;;;;;;;10.22;59.15;101153.88;4949030;28;123686;-77
2024/02/29 06:18:00;;;;;;;10.70;5.10;;;;;;;10.23;59.15;101147.66;4931927;28;114779;-77
2024/02/29 06:20:27;;;;;;;11.45;5.57;;;;;;;10.24;59.30;101149.38;4950719;28;114998;-76
2024/02/29 06:22:55;;;;;;;13.40;6.32;;;;;;;10.27;59.33;101148.41;4940521;28;123604;-77
2024/02/29 06:25:23;;;;;;;12.32;5.47;;;;;;;10.28;59.44;101156.31;4947134;28;123501;-77
2024/02/29 06:27:50;;;;;;;11.95;5.50;;;;;;;10.30;59.45;101149.19;4947669;28;114924;-76
2024/02/29 06:30:17;;;;;;;11.90;5.90;;;;;;;10.33;59.39;101148.19;4944540;28;113512;-76
2024/02/29 06:32:45;;;;;;;11.57;5.70;;;;;;;10.33;59.16;101149.06;4947383;28;124202;-77
2024/02/29 06:35:13;;;;;;;12.15;5.65;;;;;;;10.36;59.34;101141.91;4947608;28;124036;-76
2024/02/29 06:37:44;;;;;;;10.55;5.45;;;;;;;10.38;59.26;101145.34;4952132;28;114144;-76
2024/02/29 06:40:16;;;;;;;10.02;4.97;;;;;;;10.38;59.10;101140.06;4947978;28;114206;-76
2024/02/29 06:42:44;;;;;;;9.90;5.07;;;;;;;10.41;59.20;101150.53;4946798;28;124302;-77
2024/02/29 06:45:12;;;;;;;12.68;5.50;;;;;;;10.42;59.43;101142.53;4942789;28;124522;-76
2024/02/29 06:47:40;;;;;;;12.40;5.47;;;;;;;10.45;59.37;101141.56;4948138;28;114283;-77
2024/02/29 06:50:10;;;;;;;10.30;5.25;;;;;;;10.46;59.17;101140.66;4941809;28;112962;-76
2024/02/29 06:52:37;;;;;;;12.57;5.70;;;;;;;10.48;59.38;101138.78;4963729;28;124479;-76
2024/02/29 06:55:09;;;;;;;10.52;5.15;;;;;;;10.50;59.10;101139.59;4951160;28;124945;-77
2024/02/29 06:57:36;;;;;;;10.23;4.80;;;;;;;10.52;59.39;101137.75;4940642;28;113959;-77
2024/02/29 07:00:05;;;;;;;12.30;5.00;;;;;;;10.52;59.05;101138.59;4944701;28;113843;-76
2024/02/29 07:02:33;;;;;;;11.00;4.80;;;;;;;10.54;59.33;101140.34;4943582;28;124123;-77
2024/02/29 07:05:00;;;;;;;10.40;4.95;;;;;;;10.55;59.13;101142.03;4953094;28;124265;-76
2024/02/29 07:07:28;;;;;;;10.77;5.05;;;;;;;10.56;59.53;101139.34;4948582;28;115403;-77
2024/02/29 07:09:56;;;;;;;11.48;4.47;;;;;;;10.57;59.18;101135.78;4950921;28;115673;-76
2024/02/29 07:12:23;;;;;;;12.63;4.82;;;;;;;10.58;59.15;101137.50;4952717;28;124524;-76
2024/02/29 07:15:22;;;;;;;9.65;4.45;;;;;;;10.60;59.36;101130.34;4947115;28;123601;-76
2024/02/29 07:17:49;;;;;;;11.07;4.60;;;;;;;10.61;59.22;101132.06;4948064;28;113993;-77
2024/02/29 07:21:07;;;;;;;10.95;4.60;;;;;;;10.63;59.46;101130.22;4949164;28;113823;-77
2024/02/29 07:23:36;;;;;;;9.52;4.30;;;;;;;10.64;59.34;101126.66;4923565;28;123646;-77
2024/02/29 07:26:05;;;;;;;11.40;4.88;;;;;;;10.66;59.48;101132.75;4935852;28;122818;-77
2024/02/29 07:28:33;;;;;;;11.73;4.80;;;;;;;10.68;59.26;101128.25;4946607;28;114089;-77
2024/02/29 07:31:01;;;;;;;11.27;4.68;;;;;;;10.71;59.32;101128.13;4955561;28;113786;-76
2024/02/29 07:33:31;;;;;;;8.70;4.22;;;;;;;10.76;59.46;101124.44;4945444;28;123020;-75
2024/02/29 07:36:00;;;;;;;10.75;4.70;;;;;;;10.77;59.53;101116.41;4943783;28;123084;-76
2024/02/29 07:38:28;;;;;;;12.50;6.18;;;;;;;10.82;59.61;101118.88;4947933;28;114560;-76
2024/02/29 07:40:55;;;;;;;11.75;4.93;;;;;;;10.83;59.38;101110.88;4951258;28;113782;-76
2024/02/29 07:43:23;;;;;;;9.60;4.80;;;;;;;10.86;59.67;101120.47;4943698;28;124150;-76
2024/02/29 07:45:50;;;;;;;11.15;4.65;;;;;;;10.89;59.51;101115.06;4942550;28;122984;-76
2024/02/29 07:48:18;;;;;;;10.38;5.13;;;;;;;10.92;59.55;101120.19;4946445;28;114262;-76
2024/02/29 07:51:02;;;;;;;9.90;4.45;;;;;;;10.95;59.75;101114.78;4951971;28;113990;-77
2024/02/29 07:53:29;;;;;;;11.02;4.82;;;;;;;10.99;59.67;101111.06;4939648;28;123375;-78
2024/02/29 07:55:58;;;;;;;11.30;4.55;;;;;;;11.02;59.50;101110.94;4947311;28;123837;-77
2024/02/29 07:58:26;;;;;;;10.50;5.25;;;;;;;11.05;59.56;101100.19;4941213;28;115173;-77
2024/02/29 08:00:54;;;;;;;12.20;4.70;;;;;;;11.09;59.76;101101.81;4947920;28;114885;-77
2024/02/29 08:03:22;;;;;;;9.73;5.03;;;;;;;11.13;59.72;101101.66;4953263;28;123065;-78
2024/02/29 08:05:58;;;;;;;10.70;4.93;;;;;;;11.14;59.50;101101.59;4953208;28;123878;-78
2024/02/29 08:08:25;;;;;;;10.50;4.90;;;;;;;11.18;59.59;101097.03;4950258;28;113416;-77
2024/02/29 08:11:04;;;;;;;10.60;4.75;;;;;;;11.21;59.86;101094.25;4945202;28;114391;-77
2024/02/29 08:13:37;;;;;;;11.60;4.80;;;;;;;11.25;59.53;101095.84;4948104;28;123952;-77
2024/02/29 08:16:04;;;;;;;12.00;4.60;;;;;;;11.28;59.50;101095.69;4947436;28;123861;-77
2024/02/29 08:18:33;;;;;;;10.90;5.05;;;;;;;11.31;59.31;101095.56;4943808;28;114127;-77
2024/02/29 08:21:03;;;;;;;11.63;4.65;;;;;;;11.34;59.76;101095.44;4946879;28;113807;-77
2024/02/29 08:23:31;;;;;;;9.65;4.57;;;;;;;11.37;59.62;101089.97;4927736;28;123295;-77
2024/02/29 08:25:58;;;;;;;10.13;4.43;;;;;;;11.41;59.40;101086.25;4941573;28;124124;-77
2024/02/29 08:28:33;;;;;;;11.38;5.10;;;;;;;11.43;59.73;101084.44;4949796;28;114208;-77
2024/02/29 08:31:01;;;;;;;10.40;4.63;;;;;;;11.47;59.53;101091.31;4952026;28;114292;-76
2024/02/29 08:33:35;;;;;;;12.20;5.35;;;;;;;11.49;59.48;101078.84;4939993;28;123496;-76
2024/02/29 08:36:02;;;;;;;10.30;4.65;;;;;;;11.54;59.58;101075.13;4950037;28;123417;-77
2024/02/29 08:38:37;;;;;;;13.85;4.70;;;;;;;11.56;59.69;101073.25;4952536;28;114362;-77
2024/02/29 08:41:05;;;;;;;10.80;4.80;;;;;;;11.59;59.55;101070.47;4941679;28;114578;-77
2024/02/29 08:43:33;;;;;;;12.68;4.75;;;;;;;11.62;59.67;101068.53;4946487;28;98942;-76
2024/02/29 08:46:03;;;;;;;10.68;4.82;;;;;;;11.67;59.70;101068.31;4949506;28;123963;-76
2024/02/29 08:48:31;;;;;;;12.10;5.53;;;;;;;11.72;59.67;101063.66;4953099;28;115544;-77
2024/02/29 08:50:58;;;;;;;9.00;4.95;;;;;;;11.77;59.59;101056.34;4947453;28;113991;-76
2024/02/29 08:53:25;;;;;;;11.88;5.00;;;;;;;11.83;59.74;101064.03;4944318;28;123421;-77
2024/02/29 08:55:53;;;;;;;9.60;4.90;;;;;;;11.88;59.53;101054.06;4949993;28;123424;-77
2024/02/29 08:58:20;;;;;;;9.18;4.95;;;;;;;11.95;59.69;101048.50;4946969;28;114336;-77
2024/02/29 09:00:48;;;;;;;12.38;5.50;;;;;;;12.00;59.82;101051.78;4950651;28;113886;-77
2024/02/29 09:03:16;;;;;;;10.55;5.20;;;;;;;12.08;59.63;101049.63;4938599;28;122848;-76
2024/02/29 09:05:44;;;;;;;9.80;4.85;;;;;;;12.16;59.68;101044.78;4940895;28;123342;-76
2024/02/29 09:08:12;;;;;;;9.60;4.78;;;;;;;12.24;59.57;101040.00;4949833;28;113872;-76
2024/02/29 09:10:39;;;;;;;11.60;4.93;;;;;;;12.30;59.56;101043.25;4941685;28;114356;-76
2024/02/29 09:13:06;;;;;;;8.63;4.43;;;;;;;12.37;59.65;101039.38;4936710;28;124124;-76
2024/02/29 09:15:53;;;;;;;10.60;4.90;;;;;;;12.45;59.71;101047.81;4938871;28;123709;-76
2024/02/29 09:18:22;;;;;;;9.82;4.57;;;;;;;12.50;59.57;101045.78;4951738;28;113746;-77
2024/02/29 09:20:49;;;;;;;9.55;4.30;;;;;;;12.55;59.46;101043.78;4952221;28;114787;-76
2024/02/29 09:23:18;;;;;;;10.73;4.32;;;;;;;12.60;59.42;101044.41;4949289;28;124421;-76
2024/02/29 09:25:45;;;;;;;9.18;4.80;;;;;;;12.62;59.42;101031.91;4951335;28;123816;-76
2024/02/29 09:28:13;;;;;;;10.02;4.60;;;;;;;12.65;59.28;101029.06;4938988;28;114153;-76
2024/02/29 09:30:40;;;;;;;8.63;4.47;;;;;;;12.70;59.35;101031.50;4950403;28;113965;-77
2024/02/29 09:33:08;;;;;;;12.00;4.50;;;;;;;12.72;59.27;101023.47;4945605;28;124203;-77
2024/02/29 09:35:35;;;;;;;9.82;4.15;;;;;;;12.74;59.12;101024.25;4945630;28;122886;-77
2024/02/29 09:38:04;;;;;;;8.93;4.68;;;;;;;12.77;59.10;101010.78;4946352;28;115215;-76
2024/02/29 09:40:32;;;;;;;11.60;5.05;;;;;;;12.80;59.06;101010.63;4945479;28;115890;-77
2024/02/29 09:43:18;;;;;;;10.05;4.63;;;;;;;12.82;59.20;101008.75;4938660;28;124172;-77
2024/02/29 09:45:50;;;;;;;7.50;4.25;;;;;;;12.83;59.01;101013.16;4948388;28;123989;-77
2024/02/29 09:48:18;;;;;;;8.35;4.35;;;;;;;12.85;59.03;101008.59;4944923;28;114330;-76
2024/02/29 09:50:46;;;;;;;16.90;6.13;;;;;;;12.85;58.87;101000.63;4951623;28;113631;-77
2024/02/29 09:53:15;;;;;;;10.48;5.30;;;;;;;12.86;58.87;100994.34;4942361;28;124333;-77
2024/02/29 09:55:43;;;;;;;12.05;5.68;;;;;;;12.88;58.89;100997.78;4945286;28;123838;-76
2024/02/29 09:58:16;;;;;;;12.40;5.85;;;;;;;12.89;58.90;100994.22;4951487;28;114739;-77
2024/02/29 10:00:45;;;;;;;11.80;5.60;;;;;;;12.89;58.80;100994.22;4954220;28;114529;-77
2024/02/29 10:03:16;;;;;;;11.27;5.50;;;;;;;12.91;58.71;100997.66;4950612;28;123652;-77
2024/02/29 10:05:48;;;;;;;10.85;5.18;;;;;;;12.91;58.75;100997.66;4953267;28;124019;-76
2024/02/29 10:08:15;;;;;;;10.68;5.70;;;;;;;12.91;58.72;100992.31;4946759;28;113282;-76
2024/02/29 10:10:46;;;;;;;13.15;5.80;;;;;;;12.93;58.77;100995.75;4949123;28;114381;-77
2024/02/29 10:13:13;;;;;;;12.15;5.50;;;;;;;12.93;58.72;100990.44;4946394;28;123557;-77
2024/02/29 10:15:41;;;;;;;10.07;5.40;;;;;;;12.93;58.77;100986.94;4938668;28;124215;-77
2024/02/29 10:18:08;;;;;;;12.10;5.85;;;;;;;12.94;58.75;100984.19;4951923;28;115181;-77
2024/02/29 10:20:36;;;;;;;11.25;5.50;;;;;;;12.96;58.75;100984.97;4945443;28;114128;-76
2024/02/29 10:23:10;;;;;;;9.38;4.80;;;;;;;12.97;58.62;100972.53;4947770;28;123792;-77
2024/02/29 10:25:41;;;;;;;13.10;6.00;;;;;;;12.99;58.60;100978.63;4952426;28;124260;-78
2024/02/29 10:28:14;;;;;;;9.50;5.55;;;;;;;12.98;58.63;100975.13;4943944;28;115885;-77
2024/02/29 10:30:41;;;;;;;12.30;5.70;;;;;;;12.99;58.74;100979.47;4937357;28;114439;-77
2024/02/29 10:33:10;;;;;;;11.98;5.70;;;;;;;13.00;58.40;100973.22;4933306;28;124025;-76
2024/02/29 10:35:38;;;;;;;9.70;5.07;;;;;;;13.01;58.63;100968.75;4949589;28;123893;-76
2024/02/29 10:38:08;;;;;;;13.00;5.45;;;;;;;13.03;58.73;100975.75;4947182;28;113695;-76
2024/02/29 10:40:36;;;;;;;9.77;5.00;;;;;;;13.06;58.74;100969.38;4944109;28;113185;-77
2024/02/29 10:43:06;;;;;;;9.68;5.18;;;;;;;13.08;58.33;100971.97;4946570;28;123831;-77
2024/02/29 10:45:36;;;;;;;10.20;5.22;;;;;;;13.10;58.60;100964.78;4952303;28;124403;-77
2024/02/29 10:48:40;;;;;;;9.98;4.93;;;;;;;13.10;58.46;100960.31;4947430;28;114178;-77
2024/02/29 10:51:39;;;;;;;10.68;5.05;;;;;;;13.12;58.47;100957.56;4943123;28;114309;-77
2024/02/29 10:54:37;;;;;;;9.13;5.13;;;;;;;13.10;58.56;100964.78;4951672;28;123109;-76
2024/02/29 10:57:11;;;;;;;9.32;4.85;;;;;;;13.12;58.50;100946.94;4948575;28;124192;-76
2024/02/29 10:59:42;;;;;;;9.55;4.90;;;;;;;13.14;58.48;100950.34;4939981;28;114106;-76
2024/02/29 11:02:09;;;;;;;9.23;4.47;;;;;;;13.16;58.47;100937.84;4940126;28;114416;-77
2024/02/29 11:04:37;;;;;;;7.70;4.70;;;;;;;13.19;58.52;100937.69;4946618;28;125351;-78
2024/02/29 11:07:05;;;;;;;9.52;4.72;;;;;;;13.21;58.45;100941.13;4941408;28;124450;-77
2024/02/29 11:09:34;;;;;;;8.43;4.80;;;;;;;13.24;58.41;100946.25;4938946;28;113992;-76
2024/02/29 11:12:11;;;;;;;10.05;4.80;;;;;;;13.27;58.54;100940.78;4950791;28;113854;-76
2024/02/29 11:14:42;;;;;;;8.23;4.57;;;;;;;13.31;58.37;100942.34;4948822;28;124088;-77
2024/02/29 11:17:13;;;;;;;10.55;5.15;;;;;;;13.32;58.43;100938.75;4945773;28;122788;-77
2024/02/29 11:19:41;;;;;;;7.78;4.78;;;;;;;13.35;58.40;100938.56;4940618;28;115053;-76
2024/02/29 11:22:32;;;;;;;11.57;4.70;;;;;;;13.38;58.32;100937.56;4940636;28;114910;-76
2024/02/29 11:25:09;;;;;;;9.40;4.32;;;;;;;13.40;58.32;100933.84;4949564;28;123573;-76